Time;durP1;ratioP1;P1;durP2;ratioP2;P2;SDS_P1;SDS_P2;PMS_P1;PMS_P2;Temp;Humidity;BMP_temperature;BMP_pressure;BME280_temperature;BME280_humidity;BME280_pressure;Samples;Min_cycle;Max_cycle;Signal;HPM_P1;HPM_P2
2022/02/04 00:24:24;;;;;;;9.45;5.55;;;;;;;5.54;95.29;99258.53;5108892;27;20421;-95
2022/02/04 00:26:55;;;;;;;9.80;5.82;;;;;;;5.48;95.73;99263.81;5093374;28;20048;-94
2022/02/04 00:29:29;;;;;;;11.63;6.60;;;;;;;5.57;96.46;99282.28;5093265;28;20064;-94
2022/02/04 00:32:02;;;;;;;13.30;6.60;;;;;;;5.52;96.88;99290.19;5093170;28;20043;-94
2022/02/04 00:34:35;;;;;;;12.15;6.10;;;;;;;5.40;97.08;99278.75;5093788;28;20505;-95
2022/02/04 00:37:18;;;;;;;13.45;6.32;;;;;;;5.47;97.17;99291.09;5093312;28;20041;-93
2022/02/04 00:39:53;;;;;;;9.75;6.28;;;;;;;5.68;95.00;99263.81;5094008;28;20131;-94
2022/02/04 00:42:19;;;;;;;10.15;5.57;;;;;;;5.75;93.51;99262.97;5093240;28;20046;-95
2022/02/04 00:44:45;;;;;;;9.25;5.95;;;;;;;5.75;94.07;99260.31;5093131;28;20052;-94
2022/02/04 00:47:16;;;;;;;11.07;5.97;;;;;;;5.71;94.38;99254.16;5092194;28;20078;-94
2022/02/04 00:52:49;;;;;;;10.88;6.22;;;;;;;5.76;94.21;99264.72;5155163;27;20389;-94
2022/02/04 00:55:29;;;;;;;12.93;6.50;;;;;;;5.63;94.37;99253.28;5155738;27;20046;-95
2022/02/04 01:27:19;;;;;;;13.52;7.00;;;;;;;5.32;97.75;99278.75;5150740;27;20382;-95
2022/02/04 01:29:58;;;;;;;14.40;6.85;;;;;;;5.45;97.86;99295.47;5134442;27;20415;-94
2022/02/04 01:32:24;;;;;;;13.68;7.20;;;;;;;5.48;97.70;99290.19;5134186;27;20110;-94
2022/02/04 01:34:50;;;;;;;13.48;6.70;;;;;;;5.48;97.36;99298.09;5134443;27;20070;-94
2022/02/04 01:37:16;;;;;;;11.65;6.30;;;;;;;5.41;97.77;99299.84;5134755;27;20111;-95
2022/02/04 01:39:42;;;;;;;14.27;6.90;;;;;;;5.35;97.83;99273.47;5135658;27;20051;-94
2022/02/04 01:42:08;;;;;;;13.00;7.30;;;;;;;5.43;97.69;99258.53;5134661;27;20050;-95
2022/02/04 01:44:35;;;;;;;12.23;7.28;;;;;;;5.50;97.50;99262.94;5134642;27;20048;-93
2022/02/04 01:47:01;;;;;;;13.48;8.00;;;;;;;5.58;97.16;99267.34;5134409;27;20104;-93
2022/02/04 01:49:29;;;;;;;15.82;7.50;;;;;;;5.72;96.60;99279.66;5134530;27;20035;-95
2022/02/04 01:51:56;;;;;;;15.55;8.00;;;;;;;6.03;94.85;99287.63;5134888;27;20051;-95
2022/02/04 01:54:23;;;;;;;16.92;8.63;;;;;;;6.11;93.67;99292.88;5134613;27;20480;-94
2022/02/04 01:56:49;;;;;;;14.23;7.88;;;;;;;5.95;94.15;99284.97;5135047;27;20035;-94
2022/02/04 01:59:15;;;;;;;15.63;8.02;;;;;;;5.92;94.37;99284.97;5134163;28;20078;-96
2022/02/04 02:01:43;;;;;;;13.75;7.45;;;;;;;5.92;94.58;99277.03;5133996;27;20043;-93
2022/02/04 02:04:13;;;;;;;17.30;8.02;;;;;;;5.90;94.39;99275.28;5134556;27;20069;-94
2022/02/04 02:06:45;;;;;;;13.38;7.93;;;;;;;5.92;94.50;99271.75;5134275;27;20035;-94
2022/02/04 02:09:11;;;;;;;13.20;8.25;;;;;;;5.86;94.36;99271.75;5135174;27;20098;-94
2022/02/04 02:11:37;;;;;;;11.65;7.82;;;;;;;6.02;94.21;99298.19;5135249;27;20047;-94
2022/02/04 02:14:07;;;;;;;19.40;9.15;;;;;;;6.09;93.84;99306.09;5136589;27;20438;-94
2022/02/04 02:49:20;;;;;;;19.42;10.35;;;;;;;5.47;96.77;99259.44;5129722;27;20361;-94
2022/02/04 02:51:57;;;;;;;15.68;9.77;;;;;;;5.29;97.99;99257.63;5094439;28;20072;-94
2022/02/04 03:03:05;;;;;;;16.55;9.80;;;;;;;5.22;98.38;99256.72;5135084;27;20332;-95
2022/02/04 03:05:31;;;;;;;18.45;9.40;;;;;;;5.02;99.50;99226.81;5134370;27;20043;-95
2022/02/04 03:07:57;;;;;;;18.65;8.98;;;;;;;5.11;99.67;99248.78;5134360;28;20066;-94
2022/02/04 03:10:23;;;;;;;17.45;9.70;;;;;;;5.08;99.94;99235.63;5134438;27;20067;-95
2022/02/04 03:12:49;;;;;;;16.65;9.50;;;;;;;5.00;99.95;99221.53;5134480;27;20057;-95
2022/02/04 03:15:15;;;;;;;16.33;9.55;;;;;;;5.04;100.00;99231.22;5134378;27;20130;-95
2022/02/04 03:17:42;;;;;;;17.52;9.88;;;;;;;4.99;100.00;99216.25;5133596;27;20552;-95
2022/02/04 03:20:13;;;;;;;17.52;9.95;;;;;;;4.84;100.00;99185.50;5134427;27;20039;-96
2022/02/04 03:22:39;;;;;;;17.45;9.95;;;;;;;4.82;100.00;99189.88;5134463;27;20036;-95
2022/02/04 03:25:09;;;;;;;19.73;10.55;;;;;;;4.83;100.00;99191.63;5135176;27;20043;-96
2022/02/04 03:27:45;;;;;;;16.35;9.65;;;;;;;4.88;100.00;99189.84;5135600;28;20135;-95
2022/02/04 03:30:18;;;;;;;19.13;10.18;;;;;;;4.92;100.00;99191.63;5134865;27;20499;-95
2022/02/04 03:32:50;;;;;;;16.85;9.50;;;;;;;5.14;100.00;99198.72;5135352;27;20046;-95
2022/02/04 03:35:21;;;;;;;20.52;10.77;;;;;;;5.25;98.67;99196.09;5134791;27;20051;-96
2022/02/04 03:37:54;;;;;;;18.92;11.05;;;;;;;5.51;97.79;99219.88;5135689;27;20043;-95
2022/02/04 03:40:21;;;;;;;16.67;10.40;;;;;;;5.47;96.83;99204.03;5143795;28;20044;-94
2022/02/04 03:42:48;;;;;;;17.08;10.45;;;;;;;5.51;96.64;99209.31;5136643;28;20044;-95
2022/02/04 03:45:15;;;;;;;17.92;10.50;;;;;;;5.46;96.65;99200.50;5133879;28;20039;-95
2022/02/04 03:47:41;;;;;;;20.63;10.68;;;;;;;5.52;96.37;99204.91;5134423;27;20408;-95
2022/02/04 03:50:08;;;;;;;18.05;10.50;;;;;;;5.68;96.60;99234.78;5134235;28;20489;-95
2022/02/04 03:52:37;;;;;;;18.55;10.82;;;;;;;5.63;96.45;99220.75;5133941;28;20395;-96
2022/02/04 03:55:03;;;;;;;;;;;;;;;5.88;95.14;99240.97;5135265;27;20126;-96
2022/02/04 03:57:29;;;;;;;24.05;10.07;;;;;;;5.78;94.83;99211.94;5134206;27;19947;-95
2022/02/04 03:59:55;;;;;;;18.33;9.82;;;;;;;5.90;94.70;99227.78;5133500;27;20044;-95
2022/02/04 04:02:21;;;;;;;19.30;9.88;;;;;;;5.84;95.13;99218.09;5133723;28;20047;-95
2022/02/04 04:04:46;;;;;;;17.58;9.38;;;;;;;6.07;94.71;99228.66;5135165;27;20067;-94
2022/02/04 04:07:13;;;;;;;16.48;10.05;;;;;;;6.02;94.07;99195.22;5134509;27;20067;-94
2022/02/04 04:09:46;;;;;;;18.17;10.52;;;;;;;5.97;94.58;99167.06;5133914;27;20487;-94
2022/02/04 04:12:12;;;;;;;17.17;9.75;;;;;;;5.91;94.59;99163.53;5131978;27;20061;-94
2022/02/04 04:14:38;;;;;;;14.43;9.00;;;;;;;5.91;95.35;99163.53;5121611;28;20491;-95
2022/02/04 04:17:04;;;;;;;15.88;9.48;;;;;;;6.04;96.41;99188.19;5121821;28;20035;-94
2022/02/04 04:19:30;;;;;;;13.43;8.07;;;;;;;6.20;96.66;99197.81;5121972;28;20048;-94
2022/02/04 04:21:56;;;;;;;12.48;8.75;;;;;;;6.15;95.51;99173.19;5121978;28;20043;-94
2022/02/04 04:24:22;;;;;;;16.73;9.35;;;;;;;6.19;95.73;99171.44;5122666;28;20051;-94
2022/02/04 04:26:49;;;;;;;12.88;8.65;;;;;;;6.34;95.65;99193.38;5121858;28;20097;-95
2022/02/04 04:29:15;;;;;;;13.13;8.20;;;;;;;6.26;96.17;99187.22;5122185;28;20058;-96
2022/02/04 04:31:41;;;;;;;16.02;8.27;;;;;;;6.26;97.09;99192.50;5122312;28;20071;-94
2022/02/04 04:34:07;;;;;;;13.98;7.70;;;;;;;6.10;97.61;99167.94;5122886;28;20043;-95
2022/02/04 04:36:34;;;;;;;11.98;7.35;;;;;;;6.17;97.82;99171.44;5122243;28;20054;-94
2022/02/04 04:41:59;;;;;;;13.57;7.38;;;;;;;6.25;99.03;99190.78;5111008;27;20510;-94
2022/02/04 05:31:37;;;;;;;14.75;8.35;;;;;;;6.22;98.76;99172.28;5135953;27;20372;-96
2022/02/04 05:34:03;;;;;;;17.35;7.88;;;;;;;6.18;99.17;99157.34;5136292;28;20048;-96
2022/02/04 05:36:30;;;;;;;14.85;7.93;;;;;;;6.29;98.70;99171.41;5136585;28;20039;-95
2022/02/04 05:38:56;;;;;;;15.55;8.80;;;;;;;6.16;98.61;99149.44;5136613;28;20131;-95
2022/02/04 05:41:29;;;;;;;16.42;9.48;;;;;;;6.15;98.44;99171.41;5135912;28;20111;-94
2022/02/04 05:43:57;;;;;;;15.00;9.70;;;;;;;6.16;98.90;99183.75;5136054;28;20031;-95
2022/02/04 05:46:29;;;;;;;14.23;8.85;;;;;;;6.15;99.41;99178.47;5134934;28;20047;-93
2022/02/04 05:48:58;;;;;;;13.68;8.20;;;;;;;6.06;99.51;99154.75;5134991;28;20134;-94
2022/02/04 05:57:15;;;;;;;14.32;8.43;;;;;;;6.07;100.00;99161.75;5134411;27;20375;-94
2022/02/04 06:02:36;;;;;;;15.80;8.88;;;;;;;6.13;100.00;99167.03;5155443;27;20385;-95
2022/02/04 06:05:14;;;;;;;13.13;8.25;;;;;;;6.08;99.74;99148.56;5159601;27;20046;-94
2022/02/04 06:24:05;;;;;;;19.63;7.97;;;;;;;6.34;98.24;99166.97;5097611;27;20366;-94
2022/02/04 06:26:31;;;;;;;14.73;8.57;;;;;;;6.37;97.99;99160.78;5093996;28;20054;-94
2022/02/04 06:28:57;;;;;;;16.77;8.13;;;;;;;6.28;98.22;99144.97;5095370;28;20082;-95
2022/02/04 06:31:24;;;;;;;15.30;8.50;;;;;;;6.20;98.74;99136.19;5097559;28;20052;-94
2022/02/04 06:33:50;;;;;;;15.10;8.20;;;;;;;6.25;98.82;99147.66;5094678;28;20059;-95
2022/02/04 06:36:16;;;;;;;14.77;10.55;;;;;;;6.27;98.57;99141.47;5077937;28;20135;-95
2022/02/04 06:38:42;;;;;;;16.60;10.18;;;;;;;6.20;98.50;99147.63;5078666;28;20049;-94
2022/02/04 06:41:09;;;;;;;15.43;10.02;;;;;;;6.27;98.78;99164.38;5078876;28;20527;-95
2022/02/04 06:43:35;;;;;;;17.90;9.40;;;;;;;6.13;99.99;99137.97;5079587;28;20041;-95
2022/02/04 06:46:02;;;;;;;13.80;8.57;;;;;;;6.22;99.70;99151.16;5078267;28;20045;-95
2022/02/04 06:48:28;;;;;;;17.48;9.35;;;;;;;6.33;99.68;99164.31;5078599;28;20064;-95
2022/02/04 06:50:54;;;;;;;14.73;9.48;;;;;;;6.24;99.24;99140.59;5078599;28;20076;-94
2022/02/04 06:53:20;;;;;;;17.08;9.80;;;;;;;6.25;99.23;99140.59;5078991;28;20044;-95
2022/02/04 06:55:46;;;;;;;16.00;9.50;;;;;;;6.26;99.39;99144.09;5078341;28;20071;-95
2022/02/04 06:58:15;;;;;;;18.05;9.07;;;;;;;6.26;99.55;99136.19;5078021;28;20112;-96
2022/02/04 07:00:42;;;;;;;16.90;9.13;;;;;;;6.27;99.48;99133.53;5078320;28;20052;-95
2022/02/04 07:03:08;;;;;;;15.82;9.85;;;;;;;6.28;98.95;99129.13;5078936;28;20394;-95
2022/02/04 07:05:51;;;;;;;21.90;11.07;;;;;;;6.23;99.32;99134.44;5078102;28;20052;-95
2022/02/04 07:08:23;;;;;;;16.30;9.00;;;;;;;6.46;99.75;99170.44;5078276;28;20383;-94
2022/02/04 07:20:02;;;;;;;12.95;8.32;;;;;;;6.65;97.04;99127.19;5182475;27;20336;-95
2022/02/04 07:22:31;;;;;;;11.32;7.88;;;;;;;6.77;96.53;99135.06;5161253;27;20047;-96
2022/02/04 07:24:59;;;;;;;12.57;7.50;;;;;;;6.84;96.37;99132.38;5161438;27;20043;-96
2022/02/04 07:27:25;;;;;;;13.88;8.48;;;;;;;6.90;95.12;99129.69;5161913;27;20122;-96
2022/02/04 07:29:53;;;;;;;15.13;8.60;;;;;;;6.97;93.65;99134.06;5161697;27;20095;-95
2022/02/04 07:32:30;;;;;;;15.00;9.65;;;;;;;7.13;93.36;99142.75;5160400;27;20099;-96
2022/02/04 07:43:51;;;;;;;22.65;14.23;;;;;;;7.07;93.42;99119.88;5161445;27;20385;-96
2022/02/04 07:46:19;;;;;;;19.92;13.60;;;;;;;7.10;93.54;99125.13;5161392;27;20050;-95
2022/02/04 07:48:45;;;;;;;30.75;17.50;;;;;;;7.11;92.64;99124.25;5160147;27;20047;-95
2022/02/04 07:51:13;;;;;;;36.85;17.20;;;;;;;7.01;93.68;99132.28;5160270;27;20492;-95
2022/02/04 07:53:39;;;;;;;24.10;15.07;;;;;;;7.12;93.63;99143.66;5160757;27;20050;-95
2022/02/04 07:56:05;;;;;;;21.25;13.93;;;;;;;7.09;93.22;99135.72;5160465;27;20043;-94
2022/02/04 07:58:31;;;;;;;25.33;16.13;;;;;;;7.07;92.59;99129.56;5160224;27;20487;-95
2022/02/04 08:01:00;;;;;;;24.88;16.38;;;;;;;7.02;92.51;99119.03;5162872;27;20050;-96
2022/02/04 08:03:39;;;;;;;28.40;17.08;;;;;;;7.03;92.64;99110.22;5160486;27;20122;-95
2022/02/04 08:06:11;;;;;;;25.45;15.68;;;;;;;7.05;93.48;99119.00;5160326;27;20022;-95
2022/02/04 08:08:45;;;;;;;19.95;13.80;;;;;;;7.22;93.15;99139.16;5160818;27;20146;-95
2022/02/04 08:14:16;;;;;;;22.40;12.77;;;;;;;7.23;93.16;99109.19;5140153;27;20379;-95
2022/02/04 08:25:34;;;;;;;18.95;11.43;;;;;;;7.53;90.44;99122.16;5140772;27;20390;-96
2022/02/04 08:59:07;;;;;;;16.67;10.80;;;;;;;8.14;84.21;99120.63;5123792;27;20334;-94
2022/02/04 09:01:38;;;;;;;26.70;15.38;;;;;;;8.19;84.53;99113.50;5123458;28;20051;-96
2022/02/04 09:04:16;;;;;;;24.05;11.45;;;;;;;8.18;83.55;99110.88;5123211;28;20044;-95
2022/02/04 09:06:50;;;;;;;22.27;14.30;;;;;;;8.28;84.26;99123.09;5101178;28;20036;-95
2022/02/04 09:09:29;;;;;;;27.17;16.77;;;;;;;8.31;83.79;99130.16;5099146;28;20070;-95
2022/02/04 09:12:20;;;;;;;19.73;13.15;;;;;;;8.22;83.80;99118.78;5101557;28;20048;-96
2022/02/04 09:23:40;;;;;;;23.25;14.63;;;;;;;8.43;82.87;99122.06;5109077;27;1542331;-96
2022/02/04 09:26:08;;;;;;;37.60;25.67;;;;;;;8.49;82.40;99107.88;5138088;28;20051;-95
2022/02/04 09:28:37;;;;;;;48.15;32.38;;;;;;;8.59;81.83;99104.22;5144355;28;20044;-95
2022/02/04 09:31:05;;;;;;;26.33;16.27;;;;;;;8.61;81.69;99105.94;5143342;28;20100;-96
2022/02/04 09:33:32;;;;;;;24.83;14.55;;;;;;;8.79;81.38;99112.75;5142577;28;20076;-95
2022/02/04 09:35:58;;;;;;;24.60;14.93;;;;;;;8.90;80.31;99122.34;5142490;28;20068;-95
2022/02/04 09:38:26;;;;;;;27.92;20.23;;;;;;;8.93;80.50;99115.19;5142771;28;20066;-96
2022/02/04 09:40:55;;;;;;;32.85;23.52;;;;;;;9.06;79.57;99110.56;5142483;28;20058;-95
2022/02/04 09:43:28;;;;;;;24.67;13.93;;;;;;;9.01;79.34;99105.34;5143539;28;20039;-96
2022/02/04 09:45:55;;;;;;;27.15;16.98;;;;;;;9.15;78.87;99102.50;5142155;28;20130;-95
2022/02/04 09:48:21;;;;;;;46.42;30.20;;;;;;;9.24;79.37;99118.25;5142657;28;20044;-95
2022/02/04 09:50:51;;;;;;;35.95;21.58;;;;;;;9.34;78.49;99128.72;5143012;28;20043;-95
2022/02/04 10:06:48;;;;;;;43.78;32.03;;;;;;;9.64;76.70;99111.38;5161618;27;20374;-95
2022/02/04 10:19:59;;;;;;;25.15;14.93;;;;;;;9.95;75.38;99081.59;5166497;27;20371;-95
2022/02/04 10:22:27;;;;;;;25.87;14.03;;;;;;;9.93;76.07;99089.63;5164796;27;20047;-95
2022/02/04 10:24:59;;;;;;;35.70;20.50;;;;;;;9.99;76.29;99091.25;5165693;27;20043;-95
2022/02/04 10:27:31;;;;;;;34.58;19.77;;;;;;;10.12;75.95;99100.75;5165390;27;20046;-94
2022/02/04 10:29:59;;;;;;;28.20;16.70;;;;;;;10.11;76.33;99098.13;5164531;27;20043;-94
2022/02/04 10:32:41;;;;;;;29.73;18.20;;;;;;;10.03;77.17;99082.31;5163917;27;20095;-95
2022/02/04 10:35:15;;;;;;;21.17;11.88;;;;;;;9.77;77.64;99085.50;5160410;27;20058;-95
2022/02/04 10:37:44;;;;;;;43.15;23.08;;;;;;;9.70;78.42;99098.00;5161998;27;20039;-95
2022/02/04 10:40:28;;;;;;;43.80;25.40;;;;;;;9.48;80.88;99089.56;5159792;27;20045;-94
2022/02/04 11:02:34;;;;;;;24.45;14.27;;;;;;;9.44;81.86;99051.56;5140310;27;20372;-95
2022/02/04 11:05:16;;;;;;;19.35;12.18;;;;;;;9.48;81.67;99047.09;5139799;28;20108;-94
2022/02/04 11:35:27;;;;;;;21.48;10.27;;;;;;;11.36;73.57;99000.38;5100039;27;20379;-94
2022/02/04 11:54:29;;;;;;;52.75;23.17;;;;;;;11.51;73.61;98973.34;5119552;27;20395;-95
2022/02/04 11:57:18;;;;;;;50.78;21.23;;;;;;;11.44;73.75;98964.66;5118049;28;20510;-93
2022/02/04 11:59:46;;;;;;;30.80;16.08;;;;;;;11.44;73.37;98964.66;5119733;28;20043;-93
2022/02/04 12:02:34;;;;;;;35.33;16.67;;;;;;;11.36;74.79;98952.47;5119887;28;20039;-95
2022/02/04 12:05:34;;;;;;;35.17;19.15;;;;;;;11.48;75.51;98986.75;5120261;28;20039;-96
2022/02/04 12:08:26;;;;;;;22.85;11.60;;;;;;;11.41;75.50;98970.06;5120248;28;20043;-96
2022/02/04 12:10:55;;;;;;;20.80;9.70;;;;;;;11.37;75.75;98959.53;5118472;28;20071;-94
2022/02/04 12:13:24;;;;;;;12.25;5.65;;;;;;;11.31;75.34;98953.44;5118387;28;20381;-95
2022/02/04 12:16:10;;;;;;;19.35;8.80;;;;;;;11.26;75.31;98946.53;5116827;28;20036;-96
2022/02/04 12:19:08;;;;;;;35.05;13.98;;;;;;;11.45;74.80;98933.56;5117919;28;20044;-94
2022/02/04 12:21:45;;;;;;;13.02;7.75;;;;;;;11.56;74.27;98934.16;5118989;28;20078;-95
2022/02/04 12:24:37;;;;;;;14.05;6.65;;;;;;;11.88;73.62;98948.34;5118736;28;20040;-95
2022/02/04 12:27:30;;;;;;;21.23;9.52;;;;;;;11.98;73.54;98955.16;5114347;28;20044;-95
2022/02/04 12:30:45;;;;;;;15.63;6.78;;;;;;;12.12;73.05;98942.28;5119142;28;20527;-96
2022/02/04 12:33:13;;;;;;;19.13;8.15;;;;;;;12.06;72.12;98931.81;5119667;28;20083;-96
2022/02/04 12:35:53;;;;;;;13.15;7.00;;;;;;;11.93;72.30;98909.13;5115577;28;20043;-93
2022/02/04 12:38:19;;;;;;;14.52;7.18;;;;;;;12.12;72.27;98915.63;5117199;28;20040;-94
2022/02/04 12:40:56;;;;;;;11.55;6.47;;;;;;;12.09;72.37;98901.53;5109725;28;20052;-95
2022/02/04 12:43:25;;;;;;;13.23;5.82;;;;;;;12.17;71.83;98895.97;5096616;28;20041;-94
2022/02/04 12:45:52;;;;;;;11.23;6.00;;;;;;;12.22;70.87;98896.69;5095908;28;20055;-94
2022/02/04 12:48:19;;;;;;;15.73;6.57;;;;;;;12.26;71.70;98895.66;5097005;28;20044;-96
2022/02/04 12:50:52;;;;;;;17.77;7.25;;;;;;;12.39;71.33;98889.00;5110684;28;20040;-94
2022/02/04 12:53:26;;;;;;;13.25;6.40;;;;;;;12.47;70.54;98905.66;5111802;28;20037;-95
2022/02/04 12:56:13;;;;;;;16.73;6.38;;;;;;;12.48;70.79;98899.38;5100143;28;20392;-96
2022/02/04 12:58:55;;;;;;;16.02;7.20;;;;;;;12.51;70.54;98903.72;5106319;28;20127;-96
2022/02/04 13:08:12;;;;;;;17.80;7.95;;;;;;;12.49;70.57;98890.47;5136123;27;20364;-93
2022/02/04 13:10:39;;;;;;;16.05;7.45;;;;;;;12.41;70.70;98878.31;5136128;27;20047;-94
2022/02/04 13:13:07;;;;;;;35.58;11.38;;;;;;;12.33;71.21;98867.88;5137078;27;20054;-92
2022/02/04 13:15:34;;;;;;;23.70;10.38;;;;;;;12.23;70.91;98864.66;5138339;27;20432;-94
2022/02/04 13:18:04;;;;;;;22.92;9.63;;;;;;;12.27;71.36;98868.06;5137442;27;20472;-93
2022/02/04 13:20:30;;;;;;;20.50;8.32;;;;;;;12.22;71.22;98856.69;5139389;27;20032;-95
2022/02/04 13:23:03;;;;;;;16.50;6.90;;;;;;;12.33;71.29;98873.22;5139705;27;20047;-95
2022/02/04 13:25:31;;;;;;;16.05;7.85;;;;;;;12.21;71.36;98854.94;5139034;27;20039;-95
2022/02/04 13:28:06;;;;;;;21.85;10.20;;;;;;;12.35;71.53;98871.38;5138344;27;20637;-95
2022/02/04 13:30:34;;;;;;;38.20;14.05;;;;;;;12.18;72.10;98861.25;5140220;27;20404;-95
2022/02/04 13:33:02;;;;;;;29.73;9.33;;;;;;;12.12;71.76;98854.31;5140008;27;20043;-95
2022/02/04 13:35:37;;;;;;;15.40;7.72;;;;;;;12.13;71.22;98866.72;5137842;27;20078;-94
2022/02/04 13:38:27;;;;;;;26.33;10.25;;;;;;;12.13;71.54;98861.38;5140449;27;20073;-95
2022/02/04 13:41:04;;;;;;;22.30;10.15;;;;;;;12.10;71.81;98852.59;5141983;27;20073;-94
2022/02/04 13:43:39;;;;;;;26.10;9.82;;;;;;;12.22;71.34;98862.88;5141933;27;20074;-94
2022/02/04 13:52:10;;;;;;;16.02;8.15;;;;;;;11.99;72.62;98844.97;5124125;27;20394;-96
2022/02/04 13:54:54;;;;;;;18.13;9.40;;;;;;;12.11;72.86;98862.38;5125218;28;20111;-96
2022/02/04 14:03:23;;;;;;;21.38;9.45;;;;;;;12.05;72.87;98842.09;5123290;27;20391;-96
2022/02/04 14:05:58;;;;;;;17.73;9.10;;;;;;;11.98;73.37;98839.69;5123506;28;20036;-95
2022/02/04 14:08:30;;;;;;;25.55;8.65;;;;;;;11.92;73.11;98840.75;5119495;28;20044;-96
2022/02/04 14:10:59;;;;;;;23.65;9.18;;;;;;;11.82;73.59;98836.59;5119427;28;20075;-93
2022/02/04 14:13:27;;;;;;;17.80;9.05;;;;;;;12.00;73.42;98856.50;5116447;28;20051;-95
2022/02/04 14:15:56;;;;;;;20.02;9.90;;;;;;;11.79;73.69;98839.34;5116692;28;20120;-95
2022/02/04 14:18:24;;;;;;;22.05;10.63;;;;;;;11.74;74.40;98851.94;5119905;28;20389;-95
2022/02/04 14:20:50;;;;;;;23.63;10.07;;;;;;;11.76;74.85;98858.09;5118177;28;20130;-95
2022/02/04 14:23:17;;;;;;;22.58;10.80;;;;;;;11.66;74.87;98850.38;5118914;28;20043;-93
2022/02/04 14:25:53;;;;;;;19.50;9.88;;;;;;;11.54;75.64;98841.88;5118123;28;20054;-95
2022/02/04 14:28:36;;;;;;;21.45;10.85;;;;;;;11.63;75.32;98839.81;5119930;28;20043;-95
2022/02/04 14:31:11;;;;;;;23.35;10.55;;;;;;;11.51;75.91;98827.75;5120247;28;20044;-96
2022/02/04 14:36:52;;;;;;;22.38;10.13;;;;;;;11.49;76.46;98826.94;5160779;27;20381;-94
2022/02/04 15:01:54;;;;;;;28.27;13.07;;;;;;;11.29;78.71;98800.00;5114181;27;20384;-95
2022/02/04 15:04:40;;;;;;;19.83;9.73;;;;;;;11.26;78.86;98806.31;5113583;28;20051;-94
2022/02/04 15:07:07;;;;;;;21.40;11.07;;;;;;;11.27;79.30;98809.81;5141656;27;20036;-95
2022/02/04 15:09:34;;;;;;;24.45;11.57;;;;;;;11.30;79.60;98818.59;5114214;28;20040;-96
2022/02/04 15:12:00;;;;;;;34.50;14.82;;;;;;;11.05;79.94;98786.50;5113710;28;20044;-96
2022/02/04 15:14:25;;;;;;;62.33;22.00;;;;;;;11.05;80.55;98798.94;5113993;28;20051;-95
2022/02/04 15:16:53;;;;;;;35.70;16.48;;;;;;;10.96;80.89;98794.75;5113319;28;20063;-95
2022/02/04 15:19:19;;;;;;;35.80;14.98;;;;;;;10.97;81.25;98803.59;5113235;28;20043;-95
2022/02/04 15:21:47;;;;;;;21.42;12.20;;;;;;;10.96;81.50;98801.88;5113452;28;20073;-94
2022/02/04 15:24:13;;;;;;;25.90;13.07;;;;;;;11.00;81.74;98815.03;5113565;28;20043;-94
2022/02/04 15:26:39;;;;;;;23.33;11.77;;;;;;;10.88;81.69;98794.94;5113542;28;20745;-95
2022/02/04 15:29:09;;;;;;;23.88;13.52;;;;;;;10.78;82.32;98788.16;5113750;28;20039;-93
2022/02/04 15:34:27;;;;;;;33.85;15.93;;;;;;;10.86;82.98;98809.22;5070055;28;20372;-94
2022/02/04 15:36:54;;;;;;;29.00;15.27;;;;;;;10.82;82.79;98804.88;5078224;27;20041;-94
2022/02/04 15:39:22;;;;;;;37.92;16.88;;;;;;;10.85;82.99;98816.31;5175229;27;20133;-93
2022/02/04 15:41:52;;;;;;;33.17;16.53;;;;;;;10.64;83.19;98787.66;5134404;27;20055;-94
2022/02/04 16:01:10;;;;;;;25.50;12.88;;;;;;;10.21;85.92;98799.38;5094633;27;20386;-93
2022/02/04 16:06:22;;;;;;;24.10;13.38;;;;;;;10.19;86.73;98817.13;5105583;27;20376;-94
2022/02/04 16:08:51;;;;;;;27.00;14.60;;;;;;;10.21;86.64;98816.22;5073075;28;20140;-94
2022/02/04 16:11:31;;;;;;;27.20;13.90;;;;;;;10.16;86.63;98818.09;5079158;28;20048;-94
2022/02/04 16:14:14;;;;;;;24.77;14.88;;;;;;;9.96;87.13;98801.78;5075221;28;20091;-94
2022/02/04 16:16:45;;;;;;;29.17;15.05;;;;;;;9.98;87.59;98815.91;5072893;28;20498;-95
2022/02/04 16:22:34;;;;;;;29.65;15.27;;;;;;;9.81;88.23;98825.13;5095319;27;20693;-95
2022/02/04 16:35:19;;;;;;;37.63;19.05;;;;;;;9.69;89.56;98803.28;5157770;27;20038;-94
2022/02/04 16:37:50;;;;;;;27.52;15.23;;;;;;;9.73;89.76;98811.13;5157535;27;20085;-95
2022/02/04 16:40:19;;;;;;;29.73;16.75;;;;;;;9.68;89.84;98804.19;5156634;27;20104;-95
2022/02/04 16:42:46;;;;;;;27.77;17.02;;;;;;;9.58;89.95;98801.72;5155620;27;20039;-93
2022/02/04 16:45:12;;;;;;;33.58;18.00;;;;;;;9.50;90.38;98797.50;5155383;27;20468;-95
2022/02/04 16:47:38;;;;;;;30.15;17.08;;;;;;;9.51;90.60;98808.09;5155524;27;20056;-95
2022/02/04 16:50:06;;;;;;;29.55;17.55;;;;;;;9.45;91.39;98802.91;5161498;27;20034;-95
2022/02/04 16:52:33;;;;;;;29.02;17.38;;;;;;;9.44;91.51;98801.19;5177424;27;20034;-93
2022/02/04 16:55:00;;;;;;;27.98;16.63;;;;;;;9.41;91.73;98791.53;5176061;27;20043;-95
2022/02/04 16:57:28;;;;;;;31.98;16.27;;;;;;;9.43;91.66;98812.69;5176867;27;20563;-94
2022/02/04 16:59:57;;;;;;;21.73;14.10;;;;;;;9.36;91.77;98795.16;5176981;27;20095;-95
2022/02/04 17:02:23;;;;;;;27.50;15.07;;;;;;;9.34;91.86;98807.59;5178195;27;20047;-94
2022/02/04 17:04:49;;;;;;;25.65;14.02;;;;;;;9.25;92.45;98806.88;5176263;27;20045;-94
2022/02/04 17:07:20;;;;;;;29.50;15.57;;;;;;;9.34;93.30;98831.47;5163514;27;20201;-94
2022/02/04 17:09:49;;;;;;;27.55;15.85;;;;;;;9.14;93.13;98813.31;5141259;27;20069;-95
2022/02/04 17:12:25;;;;;;;38.38;17.80;;;;;;;9.04;93.95;98810.88;5133306;27;20070;-94
2022/02/04 17:14:51;;;;;;;36.85;17.65;;;;;;;9.05;94.13;98822.34;5133938;28;20050;-95
2022/02/04 17:17:23;;;;;;;33.90;18.27;;;;;;;9.12;94.66;98837.22;5133205;27;20043;-95
2022/02/04 17:19:54;;;;;;;36.13;16.88;;;;;;;8.92;94.58;98815.53;5133403;28;20129;-94
2022/02/04 17:22:20;;;;;;;30.02;16.05;;;;;;;8.87;95.41;98831.53;5144307;27;20068;-94
2022/02/04 17:24:48;;;;;;;33.90;16.83;;;;;;;8.78;95.68;98839.66;5174655;27;20390;-93
2022/02/04 17:27:14;;;;;;;31.67;16.10;;;;;;;8.69;95.99;98845.13;5174230;27;20073;-94
2022/02/04 17:29:40;;;;;;;30.67;16.70;;;;;;;8.60;96.46;98838.22;5174985;27;20058;-93
2022/02/04 17:32:06;;;;;;;33.00;16.15;;;;;;;8.57;96.60;98839.16;5174749;27;20125;-94
2022/02/04 17:34:33;;;;;;;33.50;15.68;;;;;;;8.39;97.03;98813.84;5174539;27;20042;-94
2022/02/04 17:36:58;;;;;;;28.27;15.50;;;;;;;8.40;98.05;98839.44;5167102;27;20041;-94
2022/02/04 17:39:26;;;;;;;27.90;15.20;;;;;;;8.41;97.81;98842.97;5153829;27;20043;-95
2022/02/04 17:41:57;;;;;;;26.98;16.20;;;;;;;8.27;98.40;98839.66;5142529;27;20050;-93
2022/02/04 17:44:24;;;;;;;33.72;17.10;;;;;;;8.13;99.19;98826.63;5135416;27;20492;-94
2022/02/04 17:46:51;;;;;;;35.15;17.92;;;;;;;8.12;99.34;98831.06;5119041;28;20051;-93
2022/02/04 17:49:24;;;;;;;33.13;19.13;;;;;;;8.06;99.90;98833.78;5119190;28;20115;-94
2022/02/04 17:55:28;;;;;;;36.30;20.58;;;;;;;8.07;100.00;98869.09;5158633;27;20736;-94
2022/02/04 17:57:57;;;;;;;34.95;20.52;;;;;;;7.89;100.00;98852.59;5120336;27;20048;-95
2022/02/04 18:03:35;;;;;;;42.97;25.50;;;;;;;7.63;100.00;98830.91;5140202;27;20383;-94
2022/02/04 18:08:41;;;;;;;38.63;21.80;;;;;;;7.90;100.00;98853.47;5098518;27;20394;-96
2022/02/04 18:11:07;;;;;;;39.25;22.65;;;;;;;7.90;100.00;98830.53;5099387;28;20043;-96
2022/02/04 18:13:33;;;;;;;40.95;22.90;;;;;;;7.99;100.00;98834.78;5098834;28;20064;-96
2022/02/04 18:16:01;;;;;;;39.15;25.33;;;;;;;8.11;100.00;98844.31;5098160;28;20362;-96
2022/02/04 18:18:27;;;;;;;41.63;24.38;;;;;;;8.35;100.00;98843.94;5096861;28;20025;-95
2022/02/04 18:20:55;;;;;;;47.85;24.85;;;;;;;8.35;100.00;98835.97;5098020;28;20050;-95
2022/02/04 18:23:21;;;;;;;44.78;25.25;;;;;;;8.31;99.34;98833.41;5097188;28;20063;-95
2022/02/04 18:25:50;;;;;;;43.08;22.30;;;;;;;8.25;99.77;98844.09;5096737;28;20040;-95
2022/02/04 18:28:17;;;;;;;34.70;21.73;;;;;;;8.19;99.92;98845.94;5097072;28;20123;-95
2022/02/04 18:30:43;;;;;;;39.45;20.15;;;;;;;8.17;100.00;98852.16;5097021;28;20123;-95
2022/02/04 18:33:09;;;;;;;33.05;21.08;;;;;;;8.14;100.00;98846.94;5096321;28;20083;-95
2022/02/04 18:35:35;;;;;;;37.10;21.90;;;;;;;8.08;100.00;98850.53;5096595;28;20090;-95
2022/02/04 18:44:00;;;;;;;34.95;20.17;;;;;;;8.13;100.00;98874.28;5130998;27;20362;-95
2022/02/04 18:49:16;;;;;;;34.33;17.38;;;;;;;8.24;100.00;98877.69;5137422;27;20372;-92